createdAt,value
2019-05-14T00:00:43.269Z,0.00
2019-05-14T00:01:43.255Z,0.00
2019-05-14T00:02:43.193Z,0.00
2019-05-14T00:03:43.182Z,0.00
2019-05-14T00:04:43.192Z,0.00
2019-05-14T00:05:43.154Z,0.00
2019-05-14T00:06:43.191Z,0.00
2019-05-14T00:07:43.150Z,0.00
2019-05-14T00:08:43.150Z,0.00
2019-05-14T00:09:43.109Z,0.00
2019-05-14T00:10:43.117Z,0.00
2019-05-14T00:11:43.093Z,0.00
2019-05-14T00:12:43.104Z,0.00
2019-05-14T00:13:43.065Z,0.00
2019-05-14T00:14:43.986Z,0.00
2019-05-14T00:15:43.061Z,0.00
2019-05-14T00:16:43.045Z,0.00
2019-05-14T00:17:43.036Z,0.00
2019-05-14T00:18:43.053Z,0.00
2019-05-14T00:19:43.016Z,0.00
2019-05-14T00:20:43.003Z,0.00
2019-05-14T00:21:43.000Z,0.00
2019-05-14T00:22:42.966Z,0.00
2019-05-14T00:23:42.955Z,0.00
2019-05-14T00:24:42.975Z,0.00
2019-05-14T00:25:42.939Z,0.00
2019-05-14T00:26:42.934Z,0.00
2019-05-14T00:27:42.920Z,0.00
2019-05-14T00:28:42.906Z,0.00
2019-05-14T00:29:42.897Z,0.00
2019-05-14T00:30:42.907Z,0.00
2019-05-14T00:31:42.871Z,0.00
2019-05-14T00:32:42.879Z,0.00
2019-05-14T00:33:42.842Z,0.00
2019-05-14T00:34:42.837Z,0.00
2019-05-14T00:35:42.835Z,0.00
2019-05-14T00:36:42.858Z,0.00
2019-05-14T00:37:42.811Z,0.00
2019-05-14T00:38:42.825Z,0.00
2019-05-14T00:39:42.790Z,0.00
2019-05-14T00:40:42.782Z,0.00
2019-05-14T00:41:42.771Z,0.00
2019-05-14T00:42:42.765Z,0.00
2019-05-14T00:43:42.750Z,0.00
2019-05-14T00:44:53.578Z,0.00
2019-05-14T00:45:43.728Z,0.00
2019-05-14T00:46:42.694Z,0.00
2019-05-14T00:47:42.697Z,0.00
2019-05-14T00:48:42.695Z,0.00
2019-05-14T00:49:42.745Z,0.00
2019-05-14T00:50:42.677Z,0.00
2019-05-14T00:51:42.643Z,0.00
2019-05-14T00:52:46.118Z,0.00
2019-05-14T00:53:42.616Z,0.00
2019-05-14T00:54:42.646Z,0.00
2019-05-14T00:55:42.596Z,0.00
2019-05-14T00:56:42.586Z,0.00
2019-05-14T00:57:42.864Z,0.00
2019-05-14T00:58:42.599Z,0.00
2019-05-14T00:59:42.570Z,0.00
2019-05-14T01:00:42.554Z,0.00
2019-05-14T01:01:42.731Z,0.00
2019-05-14T01:02:42.516Z,0.00
2019-05-14T01:03:42.513Z,0.00
2019-05-14T01:04:42.992Z,0.00
2019-05-14T01:05:42.487Z,0.00
2019-05-14T01:06:42.508Z,0.00
2019-05-14T01:07:42.538Z,0.00
2019-05-14T01:08:42.465Z,0.00
2019-05-14T01:09:42.438Z,0.00
2019-05-14T01:10:42.434Z,0.00
2019-05-14T01:11:42.422Z,0.00
2019-05-14T01:12:42.443Z,0.00
2019-05-14T01:13:42.411Z,0.00
2019-05-14T01:14:42.729Z,0.00
2019-05-14T01:15:42.390Z,0.00
2019-05-14T01:16:42.627Z,0.00
2019-05-14T01:17:42.385Z,0.00
2019-05-14T01:18:42.354Z,0.00
2019-05-14T01:19:42.674Z,0.00
2019-05-14T01:20:42.357Z,0.00
2019-05-14T01:21:42.325Z,0.00
2019-05-14T01:22:42.452Z,0.00
2019-05-14T01:23:42.291Z,0.00
2019-05-14T01:24:42.303Z,0.00
2019-05-14T01:25:42.328Z,0.00
2019-05-14T01:26:42.275Z,0.00
2019-05-14T01:27:42.248Z,0.00
2019-05-14T01:28:42.232Z,0.00
2019-05-14T01:29:42.765Z,0.00
2019-05-14T01:30:42.239Z,0.00
2019-05-14T01:31:42.198Z,0.00
2019-05-14T01:32:42.274Z,0.00
2019-05-14T01:33:42.173Z,0.00
2019-05-14T01:34:42.303Z,0.00
2019-05-14T01:35:42.185Z,0.00
2019-05-14T01:36:42.180Z,0.00
2019-05-14T01:37:42.158Z,0.00
2019-05-14T01:38:42.157Z,0.00
2019-05-14T01:39:42.209Z,0.00
2019-05-14T01:40:42.158Z,0.00
2019-05-14T01:41:42.515Z,0.00
2019-05-14T01:42:42.096Z,0.00
2019-05-14T01:43:42.121Z,0.00
2019-05-14T01:44:42.066Z,0.00
2019-05-14T01:45:42.055Z,0.00
2019-05-14T01:46:42.230Z,0.00
2019-05-14T01:47:42.015Z,0.00
2019-05-14T01:48:42.033Z,0.00
2019-05-14T01:49:42.767Z,0.00
2019-05-14T01:50:41.982Z,0.00
2019-05-14T01:51:42.462Z,0.00
2019-05-14T01:52:41.965Z,0.00
2019-05-14T01:53:41.948Z,0.00
2019-05-14T01:54:42.863Z,0.00
2019-05-14T01:55:41.956Z,0.00
2019-05-14T01:56:42.523Z,0.00
2019-05-14T01:57:42.623Z,0.00
2019-05-14T01:58:41.962Z,0.00
2019-05-14T01:59:42.925Z,0.00
2019-05-14T02:00:41.914Z,0.00
2019-05-14T02:01:41.911Z,0.00
2019-05-14T02:02:41.996Z,0.00
2019-05-14T02:03:41.841Z,0.00
2019-05-14T02:04:42.766Z,0.00
2019-05-14T02:05:41.844Z,0.00
2019-05-14T02:06:41.823Z,0.00
2019-05-14T02:07:42.163Z,0.00
2019-05-14T02:08:41.816Z,0.00
2019-05-14T02:09:42.178Z,0.00
2019-05-14T02:10:42.076Z,0.00
2019-05-14T02:11:41.843Z,0.00
2019-05-14T02:12:42.324Z,0.00
2019-05-14T02:13:41.754Z,0.00
2019-05-14T02:14:42.380Z,0.00
2019-05-14T02:15:43.041Z,0.00
2019-05-14T02:16:42.377Z,0.00
2019-05-14T02:17:41.699Z,0.00
2019-05-14T02:18:41.783Z,0.00
2019-05-14T02:19:42.482Z,0.00
2019-05-14T02:20:41.650Z,0.00
2019-05-14T02:21:42.527Z,0.00
2019-05-14T02:22:41.946Z,0.00
2019-05-14T02:23:42.071Z,0.00
2019-05-14T02:24:41.951Z,0.00
2019-05-14T02:25:41.591Z,0.00
2019-05-14T02:26:42.500Z,0.00
2019-05-14T02:27:41.588Z,0.00
2019-05-14T02:28:42.174Z,0.00
2019-05-14T02:29:41.840Z,0.00
2019-05-14T02:30:51.893Z,0.00
2019-05-14T02:31:42.535Z,0.00
2019-05-14T02:32:41.512Z,0.00
2019-05-14T02:33:41.507Z,0.00
2019-05-14T02:34:41.496Z,0.00
2019-05-14T02:35:41.477Z,0.00
2019-05-14T02:36:41.516Z,0.00
2019-05-14T02:37:41.470Z,0.00
2019-05-14T02:38:41.458Z,0.00
2019-05-14T02:39:41.563Z,0.00
2019-05-14T02:40:41.429Z,0.00
2019-05-14T02:41:41.417Z,0.00
2019-05-14T02:42:41.432Z,0.00
2019-05-14T02:43:41.401Z,0.00
2019-05-14T02:44:41.381Z,0.00
2019-05-14T02:46:00.696Z,0.00
2019-05-14T02:46:42.361Z,0.00
2019-05-14T02:47:41.367Z,0.00
2019-05-14T02:48:41.374Z,0.00
2019-05-14T02:49:41.323Z,0.00
2019-05-14T02:50:41.329Z,0.00
2019-05-14T02:51:41.314Z,0.00
2019-05-14T02:52:41.301Z,0.00
2019-05-14T02:53:41.283Z,0.00
2019-05-14T02:54:41.280Z,0.00
2019-05-14T02:55:41.256Z,0.00
2019-05-14T02:56:41.250Z,0.00
2019-05-14T02:57:41.264Z,0.00
2019-05-14T02:58:41.241Z,0.00
2019-05-14T02:59:41.209Z,0.00
2019-05-14T03:00:41.237Z,0.00
2019-05-14T03:01:41.222Z,0.00
2019-05-14T03:02:41.185Z,0.00
2019-05-14T03:03:41.170Z,0.00
2019-05-14T03:04:41.154Z,0.00
2019-05-14T03:05:41.180Z,0.00
2019-05-14T03:06:41.165Z,0.00
2019-05-14T03:07:41.128Z,0.00
2019-05-14T03:08:41.108Z,0.00
2019-05-14T03:09:41.107Z,0.00
2019-05-14T03:10:41.127Z,0.00
2019-05-14T03:11:41.116Z,0.00
2019-05-14T03:12:41.081Z,0.00
2019-05-14T03:13:41.053Z,0.00
2019-05-14T03:14:41.079Z,0.00
2019-05-14T03:15:41.045Z,0.00
2019-05-14T03:16:41.024Z,0.00
2019-05-14T03:17:41.041Z,0.00
2019-05-14T03:18:41.041Z,0.00
2019-05-14T03:19:41.265Z,0.00
2019-05-14T03:20:40.985Z,0.00
2019-05-14T03:21:40.964Z,0.00
2019-05-14T03:22:54.974Z,0.00
2019-05-14T03:23:41.956Z,0.00
2019-05-14T03:24:40.934Z,0.00
2019-05-14T03:25:40.952Z,0.00
2019-05-14T03:26:40.928Z,0.00
2019-05-14T03:27:40.897Z,0.00
2019-05-14T03:28:40.886Z,0.00
2019-05-14T03:29:40.915Z,0.00
2019-05-14T03:30:42.716Z,5.62
2019-05-14T03:31:42.522Z,5.62
2019-05-14T03:32:43.018Z,5.62
2019-05-14T03:33:43.973Z,5.62
2019-05-14T03:34:43.160Z,5.62
2019-05-14T03:35:49.193Z,5.62
2019-05-14T03:36:43.409Z,5.62
2019-05-14T03:37:40.785Z,5.62
2019-05-14T03:38:40.790Z,11.25
2019-05-14T03:39:40.804Z,11.25
2019-05-14T03:40:40.771Z,11.25
2019-05-14T03:41:40.785Z,11.25
2019-05-14T03:42:40.733Z,11.25
2019-05-14T03:43:40.759Z,16.88
2019-05-14T03:44:40.733Z,16.88
2019-05-14T03:45:40.717Z,16.88
2019-05-14T03:46:48.950Z,16.88
2019-05-14T03:47:41.701Z,22.50
2019-05-14T03:48:40.679Z,22.50
2019-05-14T03:49:40.680Z,22.50
2019-05-14T03:50:40.650Z,28.12
2019-05-14T03:51:40.631Z,28.12
2019-05-14T03:52:40.624Z,28.12
2019-05-14T03:53:55.096Z,28.12
2019-05-14T03:54:41.625Z,33.75
2019-05-14T03:55:40.839Z,33.75
2019-05-14T03:56:40.572Z,33.75
2019-05-14T03:57:40.556Z,39.38
2019-05-14T03:58:40.579Z,39.38
2019-05-14T03:59:40.822Z,45.00
2019-05-14T04:00:40.539Z,45.00
2019-05-14T04:01:40.562Z,45.00
2019-05-14T04:02:40.556Z,50.62
2019-05-14T04:03:40.504Z,50.62
2019-05-14T04:04:40.500Z,50.62
2019-05-14T04:05:40.484Z,56.25
2019-05-14T04:06:40.546Z,56.25
2019-05-14T04:07:40.452Z,61.88
2019-05-14T04:08:40.462Z,61.88
2019-05-14T04:09:40.474Z,67.50
2019-05-14T04:10:49.049Z,67.50
2019-05-14T04:11:41.474Z,73.12
2019-05-14T04:12:40.575Z,73.12
2019-05-14T04:13:40.834Z,78.75
2019-05-14T04:14:40.374Z,78.75
2019-05-14T04:15:40.369Z,84.38
2019-05-14T04:16:58.542Z,90.00
2019-05-14T04:17:42.507Z,90.00
2019-05-14T04:18:40.863Z,95.62
2019-05-14T04:19:40.321Z,101.25
2019-05-14T04:20:40.299Z,112.50
2019-05-14T04:21:40.369Z,118.12
2019-05-14T04:22:40.317Z,135.00
2019-05-14T04:23:40.298Z,140.62
2019-05-14T04:24:41.491Z,146.25
2019-05-14T04:25:40.245Z,157.50
2019-05-14T04:26:56.132Z,163.12
2019-05-14T04:27:41.253Z,168.75
2019-05-14T04:28:40.228Z,174.38
2019-05-14T04:29:40.233Z,174.38
2019-05-14T04:30:40.273Z,174.38
2019-05-14T04:31:40.219Z,180.00
2019-05-14T04:32:40.242Z,185.62
2019-05-14T04:33:40.168Z,196.88
2019-05-14T04:34:40.159Z,208.12
2019-05-14T04:35:40.250Z,230.62
2019-05-14T04:36:40.167Z,326.25
2019-05-14T04:37:40.270Z,388.12
2019-05-14T04:38:41.194Z,393.75
2019-05-14T04:39:40.094Z,410.62
2019-05-14T04:40:40.146Z,444.38
2019-05-14T04:41:40.084Z,416.25
2019-05-14T04:42:40.474Z,393.75
2019-05-14T04:43:40.504Z,382.50
2019-05-14T04:44:40.700Z,360.00
2019-05-14T04:45:40.028Z,360.00
2019-05-14T04:46:40.039Z,461.25
2019-05-14T04:47:42.073Z,579.38
2019-05-14T04:48:43.185Z,590.62
2019-05-14T04:49:40.294Z,579.38
2019-05-14T04:50:40.628Z,573.75
2019-05-14T04:51:39.999Z,596.25
2019-05-14T04:52:40.597Z,607.50
2019-05-14T04:53:39.970Z,669.38
2019-05-14T04:54:39.981Z,753.75
2019-05-14T04:55:40.270Z,770.62
2019-05-14T04:56:40.309Z,748.12
2019-05-14T04:57:39.931Z,742.50
2019-05-14T04:58:41.150Z,731.25
2019-05-14T04:59:40.322Z,736.88
2019-05-14T05:00:39.887Z,804.38
2019-05-14T05:01:40.386Z,922.50
2019-05-14T05:02:40.231Z,1006.88
2019-05-14T05:03:40.349Z,1001.25
2019-05-14T05:04:41.009Z,900.00
2019-05-14T05:05:39.826Z,810.00
2019-05-14T05:06:39.935Z,607.50
2019-05-14T05:07:40.589Z,495.00
2019-05-14T05:08:40.062Z,500.62
2019-05-14T05:09:40.250Z,495.00
2019-05-14T05:10:39.983Z,455.62
2019-05-14T05:11:39.852Z,506.25
2019-05-14T05:12:39.747Z,528.75
2019-05-14T05:13:40.088Z,540.00
2019-05-14T05:14:39.718Z,433.12
2019-05-14T05:15:39.698Z,388.12
2019-05-14T05:16:39.684Z,500.62
2019-05-14T05:17:47.217Z,534.38
2019-05-14T05:18:40.655Z,562.50
2019-05-14T05:19:44.344Z,528.75
2019-05-14T05:20:40.632Z,500.62
2019-05-14T05:21:39.620Z,523.12
2019-05-14T05:22:39.974Z,528.75
2019-05-14T05:23:39.612Z,573.75
2019-05-14T05:24:39.587Z,601.88
2019-05-14T05:25:39.591Z,624.38
2019-05-14T05:26:39.562Z,641.25
2019-05-14T05:27:39.557Z,624.38
2019-05-14T05:28:39.535Z,624.38
2019-05-14T05:29:39.551Z,585.00
2019-05-14T05:30:39.536Z,461.25
2019-05-14T05:31:39.500Z,579.38
2019-05-14T05:32:39.578Z,607.50
2019-05-14T05:33:39.496Z,601.88
2019-05-14T05:34:39.483Z,596.25
2019-05-14T05:35:42.336Z,568.12
2019-05-14T05:36:39.443Z,568.12
2019-05-14T05:37:39.452Z,579.38
2019-05-14T05:38:39.750Z,601.88
2019-05-14T05:39:39.413Z,568.12
2019-05-14T05:40:39.400Z,540.00
2019-05-14T05:41:39.417Z,551.25
2019-05-14T05:42:39.405Z,568.12
2019-05-14T05:43:39.638Z,630.00
2019-05-14T05:44:39.653Z,714.38
2019-05-14T05:45:39.344Z,770.62
2019-05-14T05:46:39.345Z,945.00
2019-05-14T05:47:47.605Z,1063.12
2019-05-14T05:48:40.307Z,1136.25
2019-05-14T05:49:39.307Z,1237.50
2019-05-14T05:50:39.286Z,1333.12
2019-05-14T05:51:39.471Z,1333.12
2019-05-14T05:52:39.276Z,1333.12
2019-05-14T05:53:39.653Z,1496.25
2019-05-14T05:54:39.239Z,1501.88
2019-05-14T05:55:39.544Z,1496.25
2019-05-14T05:56:39.219Z,1490.62
2019-05-14T05:57:39.566Z,1552.50
2019-05-14T05:58:39.952Z,1530.00
2019-05-14T05:59:39.546Z,1591.88
2019-05-14T06:00:40.138Z,1698.75
2019-05-14T06:01:45.237Z,1760.62
2019-05-14T06:02:40.243Z,1783.12
2019-05-14T06:03:39.480Z,1760.62
2019-05-14T06:04:39.662Z,1704.38
2019-05-14T06:05:39.223Z,1693.12
2019-05-14T06:06:39.178Z,1603.12
2019-05-14T06:07:39.677Z,1710.00
2019-05-14T06:08:39.089Z,1670.62
2019-05-14T06:09:39.080Z,1580.62
2019-05-14T06:10:39.972Z,1648.12
2019-05-14T06:11:39.080Z,1569.38
2019-05-14T06:12:39.163Z,1501.88
2019-05-14T06:13:39.382Z,1530.00
2019-05-14T06:14:39.019Z,1530.00
2019-05-14T06:15:45.668Z,1676.25
2019-05-14T06:16:40.020Z,1845.00
2019-05-14T06:17:39.439Z,1839.38
2019-05-14T06:18:39.611Z,1845.00
2019-05-14T06:19:38.961Z,1816.88
2019-05-14T06:20:38.980Z,1833.75
2019-05-14T06:21:39.820Z,1861.88
2019-05-14T06:22:38.971Z,1918.12
2019-05-14T06:23:38.987Z,1929.38
2019-05-14T06:24:39.218Z,1895.62
2019-05-14T06:25:40.084Z,1946.25
2019-05-14T06:26:38.885Z,1935.00
2019-05-14T06:27:38.877Z,1867.50
2019-05-14T06:28:40.779Z,1850.62
2019-05-14T06:29:38.855Z,1906.88
2019-05-14T06:30:39.586Z,1906.88
2019-05-14T06:31:38.920Z,1861.88
2019-05-14T06:32:38.984Z,1929.38
2019-05-14T06:33:39.515Z,1968.75
2019-05-14T06:34:38.820Z,1974.38
2019-05-14T06:35:39.563Z,1963.12
2019-05-14T06:36:39.656Z,1873.12
2019-05-14T06:37:38.790Z,1929.38
2019-05-14T06:38:39.110Z,1991.25
2019-05-14T06:39:39.276Z,1957.50
2019-05-14T06:40:39.562Z,2008.12
2019-05-14T06:41:42.644Z,2025.00
2019-05-14T06:42:39.461Z,2064.38
2019-05-14T06:43:39.360Z,2002.50
2019-05-14T06:44:38.806Z,2103.75
2019-05-14T06:45:39.082Z,2227.50
2019-05-14T06:46:39.199Z,2227.50
2019-05-14T06:47:38.652Z,2126.25
2019-05-14T06:48:39.620Z,2154.38
2019-05-14T06:49:38.746Z,2165.62
2019-05-14T06:50:39.333Z,2081.25
2019-05-14T06:51:39.601Z,2126.25
2019-05-14T06:52:39.008Z,2193.75
2019-05-14T06:53:39.192Z,2250.00
2019-05-14T06:54:38.928Z,2255.62
2019-05-14T06:55:39.349Z,2216.25
2019-05-14T06:56:38.761Z,2272.50
2019-05-14T06:57:39.346Z,2362.50
2019-05-14T06:58:39.134Z,2390.62
2019-05-14T06:59:38.524Z,2345.62
2019-05-14T07:00:39.403Z,2188.12
2019-05-14T07:01:38.635Z,2165.62
2019-05-14T07:02:43.619Z,2233.12
2019-05-14T07:03:39.517Z,2261.25
2019-05-14T07:04:39.463Z,2317.50
2019-05-14T07:05:39.158Z,2311.88
2019-05-14T07:06:39.167Z,2311.88
2019-05-14T07:07:40.425Z,2244.38
2019-05-14T07:08:39.205Z,2261.25
2019-05-14T07:09:38.648Z,2368.12
2019-05-14T07:10:39.551Z,2317.50
2019-05-14T07:11:38.998Z,2368.12
2019-05-14T07:12:38.857Z,2356.88
2019-05-14T07:13:38.725Z,2250.00
2019-05-14T07:14:38.904Z,2160.00
2019-05-14T07:15:38.754Z,2295.00
2019-05-14T07:16:39.004Z,2424.38
2019-05-14T07:17:38.659Z,2418.75
2019-05-14T07:18:50.907Z,2418.75
2019-05-14T07:19:39.315Z,2514.38
2019-05-14T07:20:39.264Z,2441.25
2019-05-14T07:21:38.467Z,2317.50
2019-05-14T07:22:39.019Z,2362.50
2019-05-14T07:23:38.680Z,2362.50
2019-05-14T07:24:40.605Z,2413.12
2019-05-14T07:25:39.309Z,2446.88
2019-05-14T07:26:38.774Z,2407.50
2019-05-14T07:27:39.216Z,2340.00
2019-05-14T07:28:42.021Z,2345.62
2019-05-14T07:29:38.906Z,2413.12
2019-05-14T07:30:39.570Z,2435.62
2019-05-14T07:31:38.552Z,2424.38
2019-05-14T07:32:39.534Z,2463.75
2019-05-14T07:33:38.799Z,2553.75
2019-05-14T07:34:38.842Z,2407.50
2019-05-14T07:35:38.338Z,2379.38
2019-05-14T07:36:38.821Z,2514.38
2019-05-14T07:37:39.606Z,2531.25
2019-05-14T07:38:39.096Z,2553.75
2019-05-14T07:39:38.781Z,2503.12
2019-05-14T07:40:38.829Z,2610.00
2019-05-14T07:41:39.056Z,2508.75
2019-05-14T07:42:38.532Z,2413.12
2019-05-14T07:43:39.373Z,2424.38
2019-05-14T07:44:39.051Z,2435.62
2019-05-14T07:45:38.639Z,2435.62
2019-05-14T07:46:38.982Z,2458.12
2019-05-14T07:47:38.799Z,2542.50
2019-05-14T07:48:39.228Z,2610.00
2019-05-14T07:49:38.675Z,2610.00
2019-05-14T07:50:39.705Z,2531.25
2019-05-14T07:51:38.796Z,2587.50
2019-05-14T07:52:45.295Z,2626.88
2019-05-14T07:53:42.361Z,2598.75
2019-05-14T07:54:38.976Z,2593.12
2019-05-14T07:55:38.548Z,2683.12
2019-05-14T07:56:38.488Z,2784.38
2019-05-14T07:57:39.248Z,2756.25
2019-05-14T07:58:38.714Z,2655.00
2019-05-14T07:59:38.253Z,2480.62
2019-05-14T08:00:40.221Z,2458.12
2019-05-14T08:01:38.806Z,2486.25
2019-05-14T08:02:38.085Z,2480.62
2019-05-14T08:03:38.425Z,2536.88
2019-05-14T08:04:38.241Z,2593.12
2019-05-14T08:05:38.972Z,2643.75
2019-05-14T08:06:39.432Z,2671.88
2019-05-14T08:07:38.867Z,2553.75
2019-05-14T08:08:38.611Z,2581.88
2019-05-14T08:09:38.940Z,2610.00
2019-05-14T08:10:39.240Z,2587.50
2019-05-14T08:11:38.732Z,2581.88
2019-05-14T08:12:39.198Z,2660.62
2019-05-14T08:13:39.104Z,2632.50
2019-05-14T08:14:45.483Z,2722.50
2019-05-14T08:15:38.847Z,2463.75
2019-05-14T08:16:38.232Z,2722.50
2019-05-14T08:17:38.779Z,2874.38
2019-05-14T08:18:39.515Z,2851.88
2019-05-14T08:19:38.623Z,2880.00
2019-05-14T08:20:38.118Z,2919.38
2019-05-14T08:21:38.837Z,2936.25
2019-05-14T08:22:38.325Z,2666.25
2019-05-14T08:23:39.131Z,2379.38
2019-05-14T08:24:38.556Z,1974.38
2019-05-14T08:25:39.025Z,1828.12
2019-05-14T08:26:38.193Z,2053.12
2019-05-14T08:27:38.951Z,2131.88
2019-05-14T08:28:38.323Z,2221.88
2019-05-14T08:29:40.105Z,2351.25
2019-05-14T08:30:38.915Z,2626.88
2019-05-14T08:31:38.369Z,2649.38
2019-05-14T08:32:39.059Z,2677.50
2019-05-14T08:33:39.702Z,2896.88
2019-05-14T08:34:39.004Z,2896.88
2019-05-14T08:35:39.566Z,2874.38
2019-05-14T08:36:38.005Z,2868.75
2019-05-14T08:37:38.659Z,2801.25
2019-05-14T08:38:38.348Z,2829.38
2019-05-14T08:39:39.202Z,2970.00
2019-05-14T08:40:38.250Z,3048.75
2019-05-14T08:41:38.344Z,3003.75
2019-05-14T08:42:38.298Z,2947.50
2019-05-14T08:43:39.745Z,2874.38
2019-05-14T08:44:38.926Z,2503.12
2019-05-14T08:45:38.915Z,2272.50
2019-05-14T08:46:38.864Z,2615.62
2019-05-14T08:47:39.005Z,2694.38
2019-05-14T08:48:39.013Z,2671.88
2019-05-14T08:49:45.482Z,2880.00
2019-05-14T08:50:38.878Z,3015.00
2019-05-14T08:51:38.772Z,3003.75
2019-05-14T08:52:39.259Z,3155.62
2019-05-14T08:53:38.379Z,3133.12
2019-05-14T08:54:39.059Z,3031.88
2019-05-14T08:55:38.137Z,2992.50
2019-05-14T08:56:38.987Z,3060.00
2019-05-14T08:57:38.646Z,3172.50
2019-05-14T08:58:38.522Z,3116.25
2019-05-14T08:59:39.548Z,3071.25
2019-05-14T09:00:38.752Z,3088.12
2019-05-14T09:01:38.804Z,3133.12
2019-05-14T09:02:39.248Z,3082.50
2019-05-14T09:03:39.149Z,2936.25
2019-05-14T09:04:41.891Z,3015.00
2019-05-14T09:05:38.717Z,3060.00
2019-05-14T09:06:38.496Z,3076.88
2019-05-14T09:07:38.367Z,3200.62
2019-05-14T09:08:39.078Z,3240.00
2019-05-14T09:09:38.262Z,3268.12
2019-05-14T09:10:40.006Z,1591.88
2019-05-14T09:11:44.729Z,1080.00
2019-05-14T09:12:38.791Z,860.62
2019-05-14T09:13:38.351Z,798.75
2019-05-14T09:14:38.857Z,1282.50
2019-05-14T09:15:38.475Z,3408.75
2019-05-14T09:16:46.190Z,3420.00
2019-05-14T09:17:39.008Z,3526.88
2019-05-14T09:18:38.451Z,3487.50
2019-05-14T09:19:39.448Z,3386.25
2019-05-14T09:20:38.268Z,3515.62
2019-05-14T09:21:39.660Z,1186.88
2019-05-14T09:22:39.556Z,3330.00
2019-05-14T09:23:39.205Z,3296.25
2019-05-14T09:24:38.757Z,3166.88
2019-05-14T09:25:45.589Z,714.38
2019-05-14T09:26:39.077Z,691.88
2019-05-14T09:27:38.710Z,697.50
2019-05-14T09:28:39.298Z,517.50
2019-05-14T09:29:39.293Z,489.38
2019-05-14T09:30:38.184Z,523.12
2019-05-14T09:31:39.140Z,579.38
2019-05-14T09:32:38.821Z,590.62
2019-05-14T09:33:39.034Z,596.25
2019-05-14T09:34:39.101Z,590.62
2019-05-14T09:35:38.703Z,601.88
2019-05-14T09:36:39.306Z,652.50
2019-05-14T09:37:39.286Z,731.25
2019-05-14T09:38:41.709Z,765.00
2019-05-14T09:39:38.574Z,849.38
2019-05-14T09:40:39.483Z,883.12
2019-05-14T09:41:38.805Z,928.12
2019-05-14T09:42:39.277Z,1496.25
2019-05-14T09:43:39.001Z,1783.12
2019-05-14T09:44:38.685Z,916.88
2019-05-14T09:45:38.663Z,900.00
2019-05-14T09:46:38.422Z,1423.12
2019-05-14T09:47:38.805Z,928.12
2019-05-14T09:48:38.027Z,888.75
2019-05-14T09:49:38.830Z,1603.12
2019-05-14T09:50:38.312Z,1063.12
2019-05-14T09:51:38.370Z,1681.88
2019-05-14T09:52:39.021Z,832.50
2019-05-14T09:53:38.381Z,731.25
2019-05-14T09:54:39.409Z,742.50
2019-05-14T09:55:38.858Z,720.00
2019-05-14T09:56:39.357Z,821.25
2019-05-14T09:57:38.716Z,956.25
2019-05-14T09:58:38.697Z,1046.25
2019-05-14T09:59:38.479Z,1001.25
2019-05-14T10:00:38.781Z,2283.75
2019-05-14T10:01:38.349Z,821.25
2019-05-14T10:02:39.093Z,686.25
2019-05-14T10:03:38.867Z,922.50
2019-05-14T10:04:38.898Z,2345.62
2019-05-14T10:05:36.580Z,2722.50
2019-05-14T10:06:38.994Z,2970.00
2019-05-14T10:07:39.111Z,2891.25
2019-05-14T10:08:38.833Z,2716.88
2019-05-14T10:09:38.891Z,911.25
2019-05-14T10:10:39.656Z,826.88
2019-05-14T10:11:38.377Z,1355.62
2019-05-14T10:12:48.334Z,776.25
2019-05-14T10:13:39.368Z,2171.25
2019-05-14T10:14:39.048Z,2261.25
2019-05-14T10:15:38.931Z,1794.38
2019-05-14T10:16:38.529Z,1485.00
2019-05-14T10:17:39.333Z,1659.38
2019-05-14T10:18:38.055Z,990.00
2019-05-14T10:19:39.296Z,1479.38
2019-05-14T10:20:45.162Z,1462.50
2019-05-14T10:21:38.837Z,1501.88
2019-05-14T10:22:36.402Z,1428.75
2019-05-14T10:23:38.715Z,1350.00
2019-05-14T10:24:38.654Z,1293.75
2019-05-14T10:25:40.275Z,1265.62
2019-05-14T10:26:39.406Z,1271.25
2019-05-14T10:27:36.358Z,1310.62
2019-05-14T10:28:36.345Z,1231.88
2019-05-14T10:29:36.341Z,1395.00
2019-05-14T10:30:36.330Z,720.00
2019-05-14T10:31:36.377Z,703.12
2019-05-14T10:32:36.307Z,1338.75
2019-05-14T10:33:36.303Z,1293.75
2019-05-14T10:34:36.281Z,770.62
2019-05-14T10:35:36.274Z,1271.25
2019-05-14T10:36:36.261Z,1237.50
2019-05-14T10:37:39.781Z,1282.50
2019-05-14T10:38:38.560Z,1299.38
2019-05-14T10:39:38.825Z,1344.38
2019-05-14T10:40:38.548Z,669.38
2019-05-14T10:41:38.476Z,753.75
2019-05-14T10:42:36.226Z,1518.75
2019-05-14T10:43:38.968Z,978.75
2019-05-14T10:44:38.770Z,1704.38
2019-05-14T10:45:38.387Z,1985.62
2019-05-14T10:46:38.471Z,2148.75
2019-05-14T10:47:38.668Z,1091.25
2019-05-14T10:48:36.161Z,1771.88
2019-05-14T10:49:38.472Z,2745.00
2019-05-14T10:50:52.275Z,2778.75
2019-05-14T10:51:38.865Z,2278.12
2019-05-14T10:52:36.103Z,2525.62
2019-05-14T10:53:36.092Z,2368.12
2019-05-14T10:54:36.083Z,2244.38
2019-05-14T10:55:38.424Z,2379.38
2019-05-14T10:56:36.071Z,2441.25
2019-05-14T10:57:36.050Z,2244.38
2019-05-14T10:58:36.039Z,2098.12
2019-05-14T10:59:36.050Z,2075.62
2019-05-14T11:00:36.091Z,1130.62
2019-05-14T11:01:36.049Z,2643.75
2019-05-14T11:02:38.536Z,3020.62
2019-05-14T11:03:38.598Z,3279.38
2019-05-14T11:04:36.048Z,3273.75
2019-05-14T11:05:36.023Z,939.38
2019-05-14T11:06:38.571Z,1113.75
2019-05-14T11:07:41.464Z,877.50
2019-05-14T11:08:38.670Z,2463.75
2019-05-14T11:09:37.907Z,804.38
2019-05-14T11:10:35.925Z,675.00
2019-05-14T11:11:38.083Z,2722.50
2019-05-14T11:12:35.899Z,2925.00
2019-05-14T11:13:35.915Z,2643.75
2019-05-14T11:14:38.489Z,2660.62
2019-05-14T11:15:35.872Z,2700.00
2019-05-14T11:16:35.870Z,2801.25
2019-05-14T11:17:35.853Z,2846.25
2019-05-14T11:18:35.840Z,2885.62
2019-05-14T11:19:35.853Z,3043.12
2019-05-14T11:20:35.873Z,3127.50
2019-05-14T11:21:35.808Z,3105.00
2019-05-14T11:22:35.808Z,3071.25
2019-05-14T11:23:38.437Z,2992.50
2019-05-14T11:24:38.320Z,2880.00
2019-05-14T11:25:38.168Z,2925.00
2019-05-14T11:26:35.779Z,3020.62
2019-05-14T11:27:35.759Z,2958.75
2019-05-14T11:28:35.744Z,2941.88
2019-05-14T11:29:38.466Z,2925.00
2019-05-14T11:30:35.727Z,2936.25
2019-05-14T11:31:35.744Z,2874.38
2019-05-14T11:32:38.307Z,2790.00
2019-05-14T11:33:35.693Z,2846.25
2019-05-14T11:34:35.691Z,2970.00
2019-05-14T11:35:35.675Z,2964.38
2019-05-14T11:36:35.689Z,2953.12
2019-05-14T11:37:35.674Z,2823.75
2019-05-14T11:38:37.545Z,2829.38
2019-05-14T11:39:37.825Z,2908.12
2019-05-14T11:40:38.536Z,2801.25
2019-05-14T11:41:35.607Z,2205.00
2019-05-14T11:42:35.600Z,1102.50
2019-05-14T11:43:35.605Z,523.12
2019-05-14T11:44:38.008Z,551.25
2019-05-14T11:45:35.574Z,579.38
2019-05-14T11:46:47.791Z,607.50
2019-05-14T11:47:37.990Z,641.25
2019-05-14T11:48:35.596Z,652.50
2019-05-14T11:49:35.553Z,675.00
2019-05-14T11:50:35.519Z,748.12
2019-05-14T11:51:58.968Z,759.38
2019-05-14T11:52:38.702Z,680.62
2019-05-14T11:53:36.141Z,607.50
2019-05-14T11:54:35.473Z,534.38
2019-05-14T11:55:35.492Z,551.25
2019-05-14T11:56:35.451Z,618.75
2019-05-14T11:57:35.444Z,641.25
2019-05-14T11:58:35.431Z,618.75
2019-05-14T11:59:35.422Z,573.75
2019-05-14T12:00:35.406Z,523.12
2019-05-14T12:01:35.420Z,562.50
2019-05-14T12:02:35.387Z,511.88
2019-05-14T12:03:35.384Z,500.62
2019-05-14T12:04:35.361Z,466.88
2019-05-14T12:05:35.367Z,405.00
2019-05-14T12:06:35.338Z,427.50
2019-05-14T12:07:35.353Z,421.88
2019-05-14T12:08:35.318Z,405.00
2019-05-14T12:09:35.302Z,382.50
2019-05-14T12:10:35.298Z,393.75
2019-05-14T12:11:35.288Z,388.12
2019-05-14T12:12:35.275Z,393.75
2019-05-14T12:13:35.284Z,393.75
2019-05-14T12:14:35.266Z,399.38
2019-05-14T12:15:35.237Z,410.62
2019-05-14T12:16:35.229Z,405.00
2019-05-14T12:17:35.214Z,410.62
2019-05-14T12:18:35.214Z,427.50
2019-05-14T12:19:35.215Z,450.00
2019-05-14T12:20:35.184Z,478.12
2019-05-14T12:21:35.169Z,506.25
2019-05-14T12:22:35.168Z,534.38
2019-05-14T12:23:35.197Z,545.62
2019-05-14T12:24:35.146Z,483.75
2019-05-14T12:25:35.150Z,472.50
2019-05-14T12:26:35.115Z,433.12
2019-05-14T12:27:35.110Z,399.38
2019-05-14T12:28:35.098Z,371.25
2019-05-14T12:29:35.084Z,354.38
2019-05-14T12:30:35.071Z,348.75
2019-05-14T12:31:35.081Z,354.38
2019-05-14T12:32:35.049Z,354.38
2019-05-14T12:33:35.103Z,360.00